Decoded Metar for LDOS (OSIJEK in CROATIA) (IATA:OSI) | Meteo·Mobile Aviation Weather
aviador You're here:

LDOS Decoded Metar

OSIJEK in CROATIA
Report Time2019-07-19 19:30:00
UTC Time2019-07-19 19:37:27
Flight Rules vfr VFR
Wind110° at 05 kt
W.Decomp.*RWY 11: 5.0 kt HW 0.3 kt LCW
Visibility9999 m
Phenomena:N/A
Clouds:N/A
Expected CloudBase > 1,600 ft AGL from Temp-Dew spread
CeilingNone
Temp21°C (ISA +7)
Dew Point17°C (78% RH)
QNH1017 hPa
Density Alt1,184 ft
Elevation292 ft
Report Wrong Elevation
Raw Report
METAR LDOS 191930Z 11005KT CAVOK 21/17 Q1017=

Extra information for LDOS:More info

Metar Taf Metar & Taf Last 4 Metars F.Rules Stats Wind Profile Meteogram Temp Stats Airport Information Weather charts Add Link Nearby VenuesMetar ALERT Operation Metar Decoded Social comments